Time;durP1;ratioP1;P1;durP2;ratioP2;P2;SDS_P1;SDS_P2;PMS_P1;PMS_P2;Temp;Humidity;BMP_temperature;BMP_pressure;BME280_temperature;BME280_humidity;BME280_pressure;Samples;Min_cycle;Max_cycle;Signal;HPM_P1;HPM_P2
2023/03/20 00:01:16;;;;;;;22.23;14.40;;;8.70;99.90;;;;;;7375356;19;20419;-68
2023/03/20 00:03:43;;;;;;;22.08;14.25;;;8.70;99.90;;;;;;7373952;19;20027;-68
2023/03/20 00:06:20;;;;;;;24.17;13.70;;;8.70;99.90;;;;;;7377385;19;20415;-76
2023/03/20 00:08:49;;;;;;;27.75;14.93;;;8.70;99.90;;;;;;7378077;19;20448;-76
2023/03/20 00:11:31;;;;;;;25.27;15.07;;;8.70;99.90;;;;;;7380326;19;20022;-75
2023/03/20 00:14:09;;;;;;;24.95;14.25;;;8.60;99.90;;;;;;7378701;19;20018;-76
2023/03/20 00:16:44;;;;;;;22.88;13.98;;;8.60;99.90;;;;;;7379753;19;20489;-76
2023/03/20 00:19:22;;;;;;;22.65;13.55;;;8.60;99.90;;;;;;7377041;19;20022;-76
2023/03/20 00:21:49;;;;;;;24.70;14.15;;;8.60;99.90;;;;;;7372742;19;20532;-76
2023/03/20 00:24:16;;;;;;;22.48;13.13;;;8.50;99.90;;;;;;7378181;19;20018;-77
2023/03/20 00:26:44;;;;;;;26.67;14.65;;;8.50;99.90;;;;;;7378186;19;20528;-76
2023/03/20 00:29:31;;;;;;;24.73;14.75;;;8.50;99.90;;;;;;7377381;19;20015;-76
2023/03/20 00:31:58;;;;;;;29.88;14.90;;;8.40;99.90;;;;;;7376500;19;20450;-76
2023/03/20 00:34:28;;;;;;;25.67;14.32;;;8.50;99.90;;;;;;7379449;19;20022;-76
2023/03/20 00:36:55;;;;;;;26.50;15.45;;;8.50;99.90;;;;;;7374410;19;20022;-75
2023/03/20 00:39:22;;;;;;;22.85;14.25;;;8.40;99.90;;;;;;7378140;19;20018;-76
2023/03/20 00:41:57;;;;;;;22.13;12.73;;;8.40;99.90;;;;;;7377913;19;20019;-76
2023/03/20 00:44:34;;;;;;;27.05;13.73;;;8.50;99.90;;;;;;7379209;19;20447;-75
2023/03/20 00:47:13;;;;;;;26.50;13.98;;;8.50;99.90;;;;;;7371189;19;20043;-76
2023/03/20 00:49:39;;;;;;;24.30;14.27;;;8.40;99.90;;;;;;7379209;19;20528;-76
2023/03/20 00:52:11;;;;;;;30.33;14.93;;;8.40;99.90;;;;;;7375407;19;20018;-69
2023/03/20 00:54:37;;;;;;;22.35;12.63;;;8.50;99.90;;;;;;7377499;19;20018;-69
2023/03/20 00:57:14;;;;;;;21.33;12.60;;;8.40;99.90;;;;;;7374245;19;20025;-69
2023/03/20 00:59:52;;;;;;;26.92;13.35;;;8.40;99.90;;;;;;7379257;19;20411;-68
2023/03/20 01:02:20;;;;;;;25.63;13.55;;;8.40;99.90;;;;;;7377050;19;20397;-69
2023/03/20 01:04:47;;;;;;;23.23;13.02;;;8.40;99.90;;;;;;7377982;19;20022;-68
2023/03/20 01:07:15;;;;;;;26.13;13.50;;;8.40;99.90;;;;;;7372245;19;20848;-71
2023/03/20 01:09:41;;;;;;;27.00;12.93;;;8.40;99.90;;;;;;7375199;19;20025;-68
2023/03/20 01:12:11;;;;;;;25.20;12.50;;;8.40;99.90;;;;;;7372438;19;20025;-68
2023/03/20 01:14:37;;;;;;;23.77;11.45;;;8.40;99.90;;;;;;7375941;19;20362;-69
2023/03/20 01:17:04;;;;;;;26.48;12.10;;;8.40;99.90;;;;;;7372511;19;20561;-69
2023/03/20 01:19:30;;;;;;;23.17;11.02;;;8.40;99.90;;;;;;7363191;19;20391;-68
2023/03/20 01:21:56;;;;;;;19.00;10.00;;;8.40;99.90;;;;;;7373423;19;20028;-69
2023/03/20 01:24:23;;;;;;;15.65;10.55;;;8.40;99.90;;;;;;7371235;19;20024;-69
2023/03/20 01:26:51;;;;;;;23.67;11.68;;;8.50;99.90;;;;;;7380512;19;20023;-68
2023/03/20 01:29:27;;;;;;;18.95;9.90;;;8.40;99.90;;;;;;7376508;19;20537;-69
2023/03/20 01:31:53;;;;;;;15.15;9.40;;;8.40;99.90;;;;;;7374747;19;20081;-69
2023/03/20 01:34:22;;;;;;;14.05;8.90;;;8.40;99.90;;;;;;7379559;19;20022;-68
2023/03/20 01:36:54;;;;;;;14.55;8.65;;;8.30;99.90;;;;;;7374995;19;20819;-68
2023/03/20 01:39:23;;;;;;;18.65;9.55;;;8.40;99.90;;;;;;7377275;19;20535;-68
2023/03/20 01:41:51;;;;;;;15.65;8.15;;;8.30;99.90;;;;;;7377287;19;20018;-68
2023/03/20 01:44:28;;;;;;;17.90;8.35;;;8.30;99.90;;;;;;7377044;19;20026;-68
2023/03/20 01:46:58;;;;;;;11.65;8.07;;;8.30;99.90;;;;;;7374115;19;20038;-69
2023/03/20 01:49:27;;;;;;;13.57;8.10;;;8.30;99.90;;;;;;7378472;19;20592;-69
2023/03/20 01:51:56;;;;;;;16.25;8.98;;;8.30;99.90;;;;;;7378459;19;20536;-68
2023/03/20 01:54:28;;;;;;;16.67;8.82;;;8.30;99.90;;;;;;7373314;19;20025;-68
2023/03/20 01:57:32;;;;;;;14.35;8.85;;;8.30;99.90;;;;;;7375467;19;20025;-69
2023/03/20 02:00:10;;;;;;;13.95;8.18;;;8.30;99.90;;;;;;7358726;19;20018;-69
2023/03/20 02:02:46;;;;;;;15.18;9.63;;;8.30;99.90;;;;;;7371696;19;20027;-69
2023/03/20 02:05:28;;;;;;;13.95;9.15;;;8.20;99.90;;;;;;7372896;19;20909;-69
2023/03/20 02:08:12;;;;;;;17.40;9.23;;;8.20;99.90;;;;;;7370907;19;20014;-68
2023/03/20 02:10:39;;;;;;;21.85;10.70;;;8.20;99.90;;;;;;7373363;19;20022;-68
2023/03/20 02:13:17;;;;;;;17.40;10.40;;;8.20;99.90;;;;;;7374350;19;20065;-69
2023/03/20 02:16:09;;;;;;;18.38;11.13;;;8.20;99.90;;;;;;7372468;19;20031;-69
2023/03/20 02:18:51;;;;;;;20.63;12.48;;;8.20;99.90;;;;;;7377248;19;20086;-68
2023/03/20 02:21:45;;;;;;;21.30;12.57;;;8.20;99.90;;;;;;7376764;19;20082;-69
2023/03/20 02:24:46;;;;;;;19.80;12.20;;;8.20;99.90;;;;;;7372400;19;20018;-76
2023/03/20 02:27:29;;;;;;;22.25;13.70;;;8.20;99.90;;;;;;7375283;19;20015;-68
2023/03/20 02:30:30;;;;;;;24.45;13.10;;;8.20;99.90;;;;;;7374205;19;20022;-68
2023/03/20 02:33:20;;;;;;;21.60;11.95;;;8.20;99.90;;;;;;7358809;19;20018;-77
2023/03/20 02:35:54;;;;;;;22.15;12.63;;;8.20;99.90;;;;;;7373339;19;20019;-76
2023/03/20 02:38:23;;;;;;;21.63;13.30;;;8.10;99.90;;;;;;7372417;19;20123;-68
2023/03/20 02:41:07;;;;;;;23.05;13.77;;;8.20;99.90;;;;;;7372558;19;20018;-69
2023/03/20 02:43:39;;;;;;;21.02;13.75;;;8.20;99.90;;;;;;7373192;19;20102;-69
2023/03/20 02:46:12;;;;;;;21.80;14.23;;;8.10;99.90;;;;;;7373019;19;20536;-69
2023/03/20 02:48:50;;;;;;;23.58;13.30;;;8.20;99.90;;;;;;7371682;19;20032;-68
2023/03/20 02:51:45;;;;;;;22.17;13.75;;;8.10;99.90;;;;;;7374413;19;20015;-69
2023/03/20 02:54:39;;;;;;;22.80;13.93;;;8.10;99.90;;;;;;7372737;19;20398;-69
2023/03/20 02:57:42;;;;;;;23.40;12.75;;;8.20;99.90;;;;;;7369335;19;20014;-69
2023/03/20 03:00:11;;;;;;;25.90;14.75;;;8.10;99.90;;;;;;7366017;19;20816;-69
2023/03/20 03:02:55;;;;;;;23.00;15.13;;;8.10;99.90;;;;;;7371120;19;20103;-69
2023/03/20 03:05:31;;;;;;;23.60;15.13;;;8.10;99.90;;;;;;7370396;19;20060;-69
2023/03/20 03:08:01;;;;;;;25.77;14.38;;;8.10;99.90;;;;;;7371353;19;20078;-68
2023/03/20 03:10:37;;;;;;;22.73;14.13;;;8.10;99.90;;;;;;7372731;19;20023;-69
2023/03/20 03:13:10;;;;;;;25.63;14.52;;;8.10;99.90;;;;;;7376623;19;20043;-69
2023/03/20 03:15:41;;;;;;;24.13;15.18;;;8.10;99.90;;;;;;7382856;19;20038;-68
2023/03/20 03:18:18;;;;;;;20.33;15.13;;;8.10;99.90;;;;;;7375601;19;20014;-68
2023/03/20 03:20:45;;;;;;;22.70;14.30;;;8.20;99.90;;;;;;7376915;19;20015;-69
2023/03/20 03:23:29;;;;;;;21.80;16.02;;;8.20;99.90;;;;;;7373746;19;20029;-68
2023/03/20 03:25:59;;;;;;;23.17;15.52;;;8.20;99.90;;;;;;7373785;19;20011;-69
2023/03/20 03:28:47;;;;;;;23.92;15.73;;;8.20;99.90;;;;;;7374950;19;20018;-69
2023/03/20 03:31:16;;;;;;;18.17;14.18;;;8.20;99.90;;;;;;7376651;19;20425;-69
2023/03/20 03:33:50;;;;;;;20.90;15.68;;;8.20;99.90;;;;;;7377023;19;20057;-68
2023/03/20 03:36:35;;;;;;;22.95;15.40;;;8.20;99.90;;;;;;7382651;19;20036;-68
2023/03/20 03:39:10;;;;;;;22.25;14.95;;;8.20;99.90;;;;;;7377899;19;20015;-68
2023/03/20 03:41:45;;;;;;;20.48;13.93;;;8.20;99.90;;;;;;7377259;19;20024;-68
2023/03/20 03:44:35;;;;;;;22.00;14.13;;;8.20;99.90;;;;;;7376408;19;20014;-68
2023/03/20 03:47:15;;;;;;;18.70;13.38;;;8.20;99.90;;;;;;7374840;19;20026;-68
2023/03/20 03:49:46;;;;;;;23.27;14.52;;;8.20;99.90;;;;;;7375988;19;20011;-70
2023/03/20 03:52:21;;;;;;;18.05;12.07;;;8.20;99.90;;;;;;7378315;19;20018;-69
2023/03/20 03:54:51;;;;;;;21.48;13.05;;;8.20;99.90;;;;;;7378453;19;20044;-69
2023/03/20 03:57:58;;;;;;;18.70;12.82;;;8.20;99.90;;;;;;7380517;19;20478;-69
2023/03/20 04:00:28;;;;;;;16.10;11.48;;;8.20;99.90;;;;;;7382205;19;20018;-69
2023/03/20 04:02:56;;;;;;;20.10;11.85;;;8.20;99.90;;;;;;7379428;19;20029;-69
2023/03/20 04:05:28;;;;;;;20.55;13.00;;;8.20;99.90;;;;;;7383698;19;20014;-68
2023/03/20 04:07:58;;;;;;;19.00;11.85;;;8.20;99.90;;;;;;7377861;19;20911;-68
2023/03/20 04:10:25;;;;;;;16.48;11.32;;;8.20;99.90;;;;;;7378344;19;20478;-69
2023/03/20 04:12:52;;;;;;;20.30;11.93;;;8.20;99.90;;;;;;7375907;19;20034;-69
2023/03/20 04:15:20;;;;;;;16.95;11.85;;;8.10;99.90;;;;;;7380029;19;20047;-68
2023/03/20 04:17:46;;;;;;;15.18;9.43;;;8.10;99.90;;;;;;7377450;19;20015;-69
2023/03/20 04:20:15;;;;;;;16.17;9.55;;;8.10;99.90;;;;;;7376638;19;20023;-68
2023/03/20 04:22:41;;;;;;;14.80;9.63;;;8.10;99.90;;;;;;7369695;19;20070;-69
2023/03/20 04:25:25;;;;;;;13.15;9.05;;;8.00;99.90;;;;;;7376837;19;20375;-68
2023/03/20 04:27:54;;;;;;;13.35;8.43;;;8.00;99.90;;;;;;7378553;19;20018;-68
2023/03/20 04:30:43;;;;;;;13.95;9.05;;;8.00;99.90;;;;;;7377772;19;20378;-69
2023/03/20 04:33:36;;;;;;;16.13;8.98;;;8.00;99.90;;;;;;7378317;19;20103;-69
2023/03/20 04:36:22;;;;;;;13.13;8.77;;;8.00;99.90;;;;;;7381562;19;20021;-68
2023/03/20 04:38:49;;;;;;;16.13;9.65;;;7.90;99.90;;;;;;7373143;19;20366;-68
2023/03/20 04:41:22;;;;;;;13.63;9.38;;;7.90;99.90;;;;;;7378510;19;20097;-69
2023/03/20 04:43:53;;;;;;;13.82;9.40;;;7.90;99.90;;;;;;7375697;19;20025;-69
2023/03/20 04:46:19;;;;;;;15.40;9.23;;;7.90;99.90;;;;;;7375128;19;20018;-68
2023/03/20 04:48:45;;;;;;;18.45;10.05;;;7.90;99.90;;;;;;7375451;19;20728;-68
2023/03/20 04:51:12;;;;;;;15.70;8.95;;;7.90;99.90;;;;;;7377013;19;20033;-68
2023/03/20 04:53:44;;;;;;;;;;;7.90;99.90;;;;;;7378170;19;20481;-68
2023/03/20 04:56:10;;;;;;;14.93;9.05;;;7.90;99.90;;;;;;7376960;19;20330;-68
2023/03/20 04:58:37;;;;;;;18.88;9.55;;;7.90;99.90;;;;;;7375012;19;21131;-69
2023/03/20 05:01:04;;;;;;;14.60;9.32;;;7.90;99.90;;;;;;7375786;19;20648;-76
2023/03/20 05:03:30;;;;;;;17.92;10.30;;;7.90;99.90;;;;;;7378287;19;20055;-76
2023/03/20 05:05:56;;;;;;;18.20;10.63;;;7.90;99.90;;;;;;7375659;19;20033;-76
2023/03/20 05:08:23;;;;;;;15.75;11.27;;;7.90;99.90;;;;;;7377631;19;20014;-75
2023/03/20 05:10:54;;;;;;;17.65;11.60;;;7.90;99.90;;;;;;7379450;19;20022;-76
2023/03/20 05:13:42;;;;;;;16.77;11.57;;;7.90;99.90;;;;;;7377929;19;20022;-76
2023/03/20 05:16:44;;;;;;;18.77;12.48;;;7.80;99.90;;;;;;7379108;19;20043;-68
2023/03/20 05:19:30;;;;;;;19.90;12.77;;;7.80;99.90;;;;;;7380421;19;20019;-68
2023/03/20 05:22:16;;;;;;;20.85;12.68;;;7.80;99.90;;;;;;7377816;19;20676;-68
2023/03/20 05:24:45;;;;;;;19.63;13.70;;;7.80;99.90;;;;;;7374804;19;20018;-68
2023/03/20 05:27:30;;;;;;;20.77;14.93;;;7.80;99.90;;;;;;7370610;19;20587;-68
2023/03/20 05:30:15;;;;;;;20.15;13.82;;;7.80;99.90;;;;;;7374992;19;21333;-68
2023/03/20 05:32:57;;;;;;;18.42;13.68;;;7.80;99.90;;;;;;7371940;19;21050;-68
2023/03/20 05:35:27;;;;;;;19.80;14.35;;;7.80;99.90;;;;;;7376207;19;20019;-68
2023/03/20 05:38:00;;;;;;;22.00;14.40;;;7.80;99.90;;;;;;7372455;19;20014;-73
2023/03/20 05:41:00;;;;;;;19.27;15.10;;;7.80;99.90;;;;;;7372248;19;20026;-69
2023/03/20 05:43:47;;;;;;;19.88;15.25;;;7.80;99.90;;;;;;7369000;19;20085;-67
2023/03/20 05:46:33;;;;;;;20.92;15.32;;;7.80;99.90;;;;;;7368608;19;20379;-68
2023/03/20 05:49:13;;;;;;;20.92;14.85;;;7.80;99.90;;;;;;7372128;19;20391;-68
2023/03/20 05:52:08;;;;;;;21.10;15.52;;;7.80;99.90;;;;;;7370558;19;20018;-76
2023/03/20 05:54:58;;;;;;;24.85;14.80;;;7.80;99.90;;;;;;7366187;19;20036;-77
2023/03/20 05:57:54;;;;;;;20.70;15.20;;;7.90;99.90;;;;;;7363734;19;20098;-75
2023/03/20 06:00:47;;;;;;;21.83;14.90;;;7.90;99.90;;;;;;7364594;19;20050;-67
2023/03/20 06:03:36;;;;;;;18.13;13.88;;;7.90;99.90;;;;;;7369101;19;20502;-68
2023/03/20 06:06:11;;;;;;;22.25;15.48;;;7.90;99.90;;;;;;7363322;19;20066;-68
2023/03/20 06:08:38;;;;;;;19.50;15.00;;;7.90;99.90;;;;;;7364510;19;20033;-76
2023/03/20 06:11:05;;;;;;;22.10;14.60;;;7.90;99.90;;;;;;7363522;19;20026;-75
2023/03/20 06:13:35;;;;;;;17.88;13.95;;;7.90;99.90;;;;;;7361256;19;20014;-76
2023/03/20 06:16:02;;;;;;;21.60;14.35;;;7.90;99.90;;;;;;7367133;19;20884;-69
2023/03/20 06:18:28;;;;;;;17.55;12.82;;;7.90;99.90;;;;;;7370614;19;20015;-75
2023/03/20 06:20:57;;;;;;;19.02;12.77;;;7.90;99.90;;;;;;7363966;19;20058;-67
2023/03/20 06:23:24;;;;;;;19.58;14.60;;;7.90;99.90;;;;;;7366980;19;20015;-75
2023/03/20 06:25:51;;;;;;;20.83;13.50;;;7.90;99.90;;;;;;7367229;19;20069;-73
2023/03/20 06:28:20;;;;;;;19.75;13.95;;;7.90;99.90;;;;;;7369013;19;20564;-68
2023/03/20 06:30:52;;;;;;;17.35;12.13;;;8.00;99.90;;;;;;7365609;19;20014;-74
2023/03/20 06:33:20;;;;;;;21.33;13.63;;;8.00;99.90;;;;;;7370328;19;20090;-75
2023/03/20 06:36:00;;;;;;;14.75;11.40;;;8.00;99.90;;;;;;7366981;19;20022;-67
2023/03/20 06:38:29;;;;;;;18.67;12.80;;;8.10;99.90;;;;;;7364703;19;20014;-67
2023/03/20 06:40:58;;;;;;;16.65;11.90;;;8.10;99.90;;;;;;7366813;19;20016;-67
2023/03/20 06:43:24;;;;;;;14.30;10.48;;;8.10;99.90;;;;;;7368572;19;20563;-75
2023/03/20 06:45:52;;;;;;;16.20;12.18;;;8.10;99.90;;;;;;7361765;19;20495;-75
2023/03/20 06:48:27;;;;;;;16.92;11.25;;;8.10;99.90;;;;;;7370786;19;20015;-75
2023/03/20 06:50:54;;;;;;;16.17;11.80;;;8.10;99.90;;;;;;7369736;19;20124;-75
2023/03/20 06:53:23;;;;;;;16.45;12.07;;;8.20;99.90;;;;;;7365264;19;20018;-75
2023/03/20 06:56:10;;;;;;;17.98;11.50;;;8.10;99.90;;;;;;7366922;19;20454;-75
2023/03/20 06:58:39;;;;;;;16.92;11.93;;;8.10;99.90;;;;;;7367595;19;20026;-76
2023/03/20 07:01:19;;;;;;;21.98;12.52;;;8.20;99.90;;;;;;7365747;19;20056;-77
2023/03/20 07:03:46;;;;;;;18.27;11.60;;;8.20;99.90;;;;;;7366464;19;20033;-75
2023/03/20 07:06:14;;;;;;;17.67;11.82;;;8.20;99.90;;;;;;7364725;19;20032;-75
2023/03/20 07:08:41;;;;;;;19.08;11.45;;;8.20;99.90;;;;;;7364418;19;20048;-75
2023/03/20 07:11:08;;;;;;;16.40;11.32;;;8.30;99.90;;;;;;7366941;19;20022;-74
2023/03/20 07:13:35;;;;;;;17.20;11.75;;;8.30;99.90;;;;;;7366061;19;20457;-74
2023/03/20 07:16:11;;;;;;;18.05;12.00;;;8.20;99.90;;;;;;7365537;19;20025;-74
2023/03/20 07:18:40;;;;;;;18.77;12.18;;;8.20;99.90;;;;;;7360677;19;20478;-74
2023/03/20 07:21:06;;;;;;;20.08;12.70;;;8.20;99.90;;;;;;7359838;19;20042;-74
2023/03/20 07:23:33;;;;;;;19.40;11.93;;;8.30;99.90;;;;;;7359628;19;20018;-74
2023/03/20 07:25:59;;;;;;;19.25;11.88;;;8.30;99.90;;;;;;7366026;19;20018;-73
2023/03/20 07:28:26;;;;;;;23.35;12.18;;;8.30;99.90;;;;;;7358417;19;20018;-73
2023/03/20 07:31:04;;;;;;;16.60;11.05;;;8.30;99.90;;;;;;7359977;19;20023;-72
2023/03/20 07:33:32;;;;;;;15.25;11.55;;;8.30;99.90;;;;;;7372185;19;20018;-74
2023/03/20 07:36:01;;;;;;;16.73;11.60;;;8.40;99.90;;;;;;7369996;19;20465;-74
2023/03/20 07:38:28;;;;;;;20.08;12.80;;;8.40;99.90;;;;;;7362928;19;21296;-73
2023/03/20 07:41:05;;;;;;;18.88;11.98;;;8.40;99.90;;;;;;7359406;19;20026;-68
2023/03/20 07:43:33;;;;;;;20.55;12.30;;;8.40;99.90;;;;;;7365192;19;20032;-69
2023/03/20 07:46:05;;;;;;;19.55;11.80;;;8.50;99.90;;;;;;7363613;19;20378;-68
2023/03/20 07:48:33;;;;;;;17.13;11.20;;;8.50;99.90;;;;;;7362838;19;20490;-73
2023/03/20 07:50:59;;;;;;;16.80;10.75;;;8.50;99.90;;;;;;7363872;19;20611;-68
2023/03/20 07:53:26;;;;;;;17.40;11.27;;;8.60;99.90;;;;;;7367096;19;20037;-68
2023/03/20 07:55:52;;;;;;;18.58;11.60;;;8.60;99.90;;;;;;7364944;19;20026;-68
2023/03/20 07:58:19;;;;;;;18.55;10.73;;;8.60;99.90;;;;;;7370631;19;20085;-68
2023/03/20 08:00:46;;;;;;;15.85;11.15;;;8.60;99.90;;;;;;7374415;19;20018;-69
2023/03/20 08:03:13;;;;;;;17.92;11.55;;;8.60;99.90;;;;;;7369448;19;20133;-68
2023/03/20 08:05:40;;;;;;;18.75;12.07;;;8.60;99.90;;;;;;7364161;19;20572;-68
2023/03/20 08:08:06;;;;;;;16.85;10.98;;;8.70;99.90;;;;;;7369573;19;20015;-66
2023/03/20 08:10:32;;;;;;;18.02;11.75;;;8.80;99.90;;;;;;7367837;19;20022;-69
2023/03/20 08:12:59;;;;;;;21.38;12.85;;;8.90;99.90;;;;;;7371250;19;20091;-68
2023/03/20 08:15:28;;;;;;;18.20;12.18;;;8.90;99.90;;;;;;7371699;19;20025;-68
2023/03/20 08:17:58;;;;;;;18.65;11.85;;;8.90;99.90;;;;;;7372592;19;20026;-68
2023/03/20 08:20:25;;;;;;;18.30;13.13;;;9.00;99.90;;;;;;7371014;19;20089;-68
2023/03/20 08:22:52;;;;;;;19.77;12.13;;;8.90;99.90;;;;;;7365281;19;20023;-68
2023/03/20 08:25:18;;;;;;;19.23;12.90;;;8.90;99.90;;;;;;7371755;19;20591;-67
2023/03/20 08:27:45;;;;;;;20.05;12.18;;;9.00;99.90;;;;;;7371190;19;20035;-68
2023/03/20 08:30:12;;;;;;;15.45;11.90;;;9.00;99.90;;;;;;7372194;19;20025;-68
2023/03/20 08:32:39;;;;;;;20.13;12.35;;;9.10;99.90;;;;;;7371983;19;20011;-68
2023/03/20 08:35:07;;;;;;;17.15;12.23;;;9.20;99.90;;;;;;7367728;19;20018;-67
2023/03/20 08:37:36;;;;;;;15.85;11.85;;;9.30;99.90;;;;;;7367462;19;20026;-68
2023/03/20 08:40:05;;;;;;;21.63;12.00;;;9.30;99.90;;;;;;7373026;19;20021;-69
2023/03/20 08:42:31;;;;;;;19.10;11.85;;;9.50;99.90;;;;;;7363869;19;20041;-70
2023/03/20 08:44:57;;;;;;;19.70;11.75;;;9.60;99.90;;;;;;7365060;19;20500;-68
2023/03/20 08:47:25;;;;;;;19.42;12.27;;;9.70;99.90;;;;;;7368932;19;20014;-68
2023/03/20 08:49:54;;;;;;;24.92;16.85;;;9.80;99.90;;;;;;7374842;19;20022;-56
2023/03/20 08:52:22;;;;;;;19.10;12.02;;;10.30;99.90;;;;;;7371762;19;20057;-67
2023/03/20 08:54:53;;;;;;;19.15;11.77;;;10.50;99.90;;;;;;7368267;19;20038;-70
2023/03/20 08:57:20;;;;;;;17.45;11.63;;;10.50;99.90;;;;;;7370714;19;20473;-72
2023/03/20 08:59:47;;;;;;;13.70;10.90;;;10.60;99.90;;;;;;7369232;19;20489;-70
2023/03/20 09:02:13;;;;;;;18.98;11.93;;;10.70;99.90;;;;;;7367240;19;20028;-72
2023/03/20 09:04:41;;;;;;;17.58;10.98;;;10.90;99.90;;;;;;7364929;19;21039;-70
2023/03/20 09:07:07;;;;;;;18.52;11.35;;;11.00;99.90;;;;;;7364408;19;20054;-71
2023/03/20 09:09:34;;;;;;;16.85;11.65;;;10.90;99.90;;;;;;7378289;19;20018;-71
2023/03/20 09:12:01;;;;;;;19.63;12.07;;;10.80;99.90;;;;;;7371985;19;20061;-71
2023/03/20 09:14:28;;;;;;;19.30;11.45;;;10.80;99.90;;;;;;7374012;19;20141;-71
2023/03/20 09:16:54;;;;;;;15.57;10.65;;;10.80;99.90;;;;;;7380462;19;21499;-71
2023/03/20 09:19:21;;;;;;;18.48;11.95;;;10.80;99.90;;;;;;7383012;19;20023;-72
2023/03/20 09:21:48;;;;;;;14.95;10.82;;;10.90;99.90;;;;;;7369503;19;20022;-71
2023/03/20 09:24:15;;;;;;;16.95;10.77;;;11.00;99.90;;;;;;7366274;19;20282;-70
2023/03/20 09:26:41;;;;;;;14.98;10.63;;;11.10;99.90;;;;;;7372443;19;20015;-71
2023/03/20 09:29:08;;;;;;;17.55;10.77;;;11.40;99.90;;;;;;7365392;19;20482;-71
2023/03/20 09:31:35;;;;;;;17.27;11.15;;;11.60;99.90;;;;;;7364089;19;20019;-71
2023/03/20 09:34:01;;;;;;;16.92;11.40;;;12.00;99.90;;;;;;7358284;19;20022;-73
2023/03/20 09:36:28;;;;;;;17.75;11.30;;;12.20;99.90;;;;;;7367542;19;20018;-73
2023/03/20 09:38:54;;;;;;;13.93;9.85;;;12.40;99.90;;;;;;7370374;19;20041;-73
2023/03/20 09:41:25;;;;;;;15.40;11.15;;;12.30;99.90;;;;;;7364275;19;20025;-72
2023/03/20 09:44:09;;;;;;;13.57;10.25;;;12.00;99.90;;;;;;7375228;19;20041;-72
2023/03/20 09:47:10;;;;;;;14.00;10.38;;;11.90;99.90;;;;;;7367655;19;20509;-73
2023/03/20 09:49:48;;;;;;;15.07;10.20;;;11.90;99.90;;;;;;7367301;19;20363;-73
2023/03/20 09:52:18;;;;;;;16.55;10.30;;;11.90;99.90;;;;;;7367626;19;20453;-74
2023/03/20 09:54:50;;;;;;;16.95;11.18;;;12.00;99.90;;;;;;7368972;19;20018;-73
2023/03/20 09:57:19;;;;;;;;;;;12.10;99.90;;;;;;7368438;19;20149;-72
2023/03/20 09:59:47;;;;;;;17.02;11.38;;;12.00;99.90;;;;;;7368003;19;20363;-73
2023/03/20 10:02:23;;;;;;;16.45;10.20;;;12.00;99.90;;;;;;7368613;19;20679;-73
2023/03/20 10:04:53;;;;;;;16.02;11.30;;;12.00;99.90;;;;;;7368691;19;20036;-73
2023/03/20 10:07:21;;;;;;;14.45;12.48;;;12.00;99.90;;;;;;7368439;19;20532;-73
2023/03/20 10:09:47;;;;;;;14.48;10.27;;;12.10;99.90;;;;;;7364932;19;20015;-73
2023/03/20 10:12:19;;;;;;;13.40;10.73;;;11.90;99.90;;;;;;7367986;19;20018;-73
2023/03/20 10:14:55;;;;;;;15.93;12.30;;;11.90;99.90;;;;;;7353628;19;20110;-73
2023/03/20 10:17:37;;;;;;;16.13;11.10;;;11.80;99.90;;;;;;7367864;19;20493;-73
2023/03/20 10:20:12;;;;;;;13.82;9.82;;;11.70;99.90;;;;;;7371685;19;20713;-75
2023/03/20 10:22:46;;;;;;;16.58;10.30;;;11.60;99.90;;;;;;7372221;19;20014;-73
2023/03/20 10:25:15;;;;;;;15.07;9.57;;;11.50;99.90;;;;;;7368011;19;20507;-73
2023/03/20 10:27:49;;;;;;;19.27;10.20;;;11.30;99.90;;;;;;7370267;19;20014;-73
2023/03/20 10:30:44;;;;;;;13.35;10.32;;;11.10;99.90;;;;;;7367161;19;20107;-73
2023/03/20 10:33:25;;;;;;;16.58;10.93;;;11.00;99.90;;;;;;7369788;19;20062;-70
2023/03/20 10:36:12;;;;;;;14.05;10.13;;;10.90;99.90;;;;;;7378778;19;20370;-70
2023/03/20 10:38:45;;;;;;;19.42;11.50;;;10.80;99.90;;;;;;7371454;19;20011;-73
2023/03/20 10:41:27;;;;;;;18.75;11.10;;;10.60;99.90;;;;;;7361638;19;20514;-72
2023/03/20 10:43:56;;;;;;;19.40;12.02;;;10.60;99.90;;;;;;7368138;19;20415;-72
2023/03/20 10:46:37;;;;;;;18.67;12.38;;;10.60;99.90;;;;;;7368869;19;20392;-73
2023/03/20 10:49:12;;;;;;;17.17;11.00;;;10.70;99.90;;;;;;7371521;19;20034;-72
2023/03/20 10:51:47;;;;;;;17.92;10.95;;;10.60;99.90;;;;;;7371910;19;20047;-73
2023/03/20 10:54:28;;;;;;;17.60;11.23;;;10.60;99.90;;;;;;7365001;19;20528;-72
2023/03/20 10:56:57;;;;;;;18.50;11.45;;;10.60;99.90;;;;;;7365639;19;20469;-73
2023/03/20 10:59:26;;;;;;;16.13;11.45;;;10.60;99.90;;;;;;7367190;19;20015;-73
2023/03/20 11:01:52;;;;;;;19.67;10.95;;;10.60;99.90;;;;;;7366007;19;20022;-74
2023/03/20 11:04:20;;;;;;;16.10;10.15;;;10.60;99.90;;;;;;7365767;19;20027;-72
2023/03/20 11:07:16;;;;;;;14.02;9.32;;;10.70;99.90;;;;;;7368171;19;20023;-73
2023/03/20 11:09:42;;;;;;;14.50;9.25;;;10.80;99.90;;;;;;7372450;19;20135;-72
2023/03/20 11:12:18;;;;;;;16.80;10.15;;;10.80;99.90;;;;;;7372486;19;20017;-71
2023/03/20 11:14:45;;;;;;;14.70;8.60;;;10.80;99.90;;;;;;7373603;19;20035;-71
2023/03/20 11:17:11;;;;;;;13.68;9.32;;;10.60;99.90;;;;;;7372855;19;20021;-72
2023/03/20 11:19:40;;;;;;;14.82;8.95;;;10.50;99.90;;;;;;7371324;19;20050;-72
2023/03/20 11:22:28;;;;;;;16.05;9.77;;;10.50;99.90;;;;;;7370169;19;20022;-72
2023/03/20 11:25:00;;;;;;;19.17;10.10;;;10.50;99.90;;;;;;7381681;19;20010;-72
2023/03/20 11:27:32;;;;;;;14.20;9.63;;;10.60;99.90;;;;;;7373336;19;20494;-72
2023/03/20 11:30:01;;;;;;;16.05;9.07;;;10.50;99.90;;;;;;7367932;19;20018;-71
2023/03/20 11:32:30;;;;;;;15.18;9.98;;;10.50;99.90;;;;;;7374134;19;20018;-73
2023/03/20 11:35:10;;;;;;;13.07;9.02;;;10.50;99.90;;;;;;7375816;19;20093;-72
2023/03/20 11:37:44;;;;;;;11.70;8.60;;;10.40;99.90;;;;;;7378982;19;20024;-72
2023/03/20 11:40:16;;;;;;;15.52;9.15;;;10.40;99.90;;;;;;7376248;19;20022;-71
2023/03/20 11:43:00;;;;;;;;;;;10.50;99.90;;;;;;7380501;19;20915;-72
2023/03/20 11:45:35;;;;;;;16.20;8.82;;;10.40;99.90;;;;;;7377623;19;20351;-71
2023/03/20 11:48:03;;;;;;;14.65;9.75;;;10.30;99.90;;;;;;7375821;19;20018;-72
2023/03/20 11:50:33;;;;;;;15.85;10.02;;;10.30;99.90;;;;;;7380919;19;20073;-72
2023/03/20 11:53:01;;;;;;;13.70;9.25;;;10.30;99.90;;;;;;7379871;19;20490;-72
2023/03/20 11:55:28;;;;;;;16.70;9.05;;;10.30;99.90;;;;;;7378479;19;20502;-72
2023/03/20 11:58:04;;;;;;;11.77;7.85;;;10.30;99.90;;;;;;7379095;19;20022;-71
2023/03/20 12:00:40;;;;;;;14.27;8.75;;;10.30;99.90;;;;;;7377149;19;20025;-72
2023/03/20 12:03:35;;;;;;;14.90;7.20;;;10.40;99.90;;;;;;7373775;19;20453;-71
2023/03/20 12:06:05;;;;;;;13.20;7.43;;;10.30;99.90;;;;;;7377259;19;20035;-72
2023/03/20 12:08:35;;;;;;;14.40;7.28;;;10.30;99.90;;;;;;7375976;19;20030;-72
2023/03/20 12:11:24;;;;;;;14.18;6.25;;;10.30;99.90;;;;;;7376768;19;20021;-72
2023/03/20 12:13:52;;;;;;;9.75;5.20;;;10.30;99.90;;;;;;7376613;19;20018;-73
2023/03/20 12:16:23;;;;;;;10.10;5.32;;;10.30;99.90;;;;;;7374591;19;20018;-71
2023/03/20 12:19:16;;;;;;;9.83;5.23;;;10.40;99.90;;;;;;7377734;19;20493;-72
2023/03/20 12:22:07;;;;;;;14.77;5.90;;;10.30;99.90;;;;;;7371865;19;20025;-72
2023/03/20 12:24:44;;;;;;;10.70;4.32;;;10.10;99.90;;;;;;7369919;19;20482;-72
2023/03/20 12:27:22;;;;;;;10.60;5.25;;;10.20;99.90;;;;;;7374854;19;21196;-73
2023/03/20 12:30:00;;;;;;;6.75;4.07;;;10.10;99.90;;;;;;7371185;19;20091;-72
2023/03/20 12:33:11;;;;;;;7.55;4.20;;;10.10;99.90;;;;;;7373167;19;20014;-72
2023/03/20 12:35:46;;;;;;;12.43;4.70;;;10.10;99.90;;;;;;7382135;19;20031;-72
2023/03/20 12:38:32;;;;;;;11.10;5.18;;;10.10;99.90;;;;;;7377466;19;20035;-72
2023/03/20 12:41:12;;;;;;;10.27;5.43;;;10.20;99.90;;;;;;7369968;19;20029;-72
2023/03/20 12:43:59;;;;;;;10.18;5.05;;;10.00;99.90;;;;;;7375088;19;20098;-72
2023/03/20 12:46:47;;;;;;;10.43;4.88;;;10.20;99.90;;;;;;7370849;19;20026;-72
2023/03/20 12:49:38;;;;;;;8.25;5.18;;;10.10;99.90;;;;;;7370322;19;20738;-73
2023/03/20 12:52:33;;;;;;;8.75;4.57;;;9.90;99.90;;;;;;7370208;19;20442;-72
2023/03/20 12:55:20;;;;;;;11.05;3.78;;;9.90;99.90;;;;;;7361618;19;20100;-72
2023/03/20 12:58:00;;;;;;;9.70;4.20;;;10.00;99.90;;;;;;7367046;19;20015;-73
2023/03/20 13:00:36;;;;;;;7.72;4.50;;;10.10;99.90;;;;;;7383200;19;20024;-73
2023/03/20 13:03:32;;;;;;;12.93;5.68;;;10.00;99.90;;;;;;7372290;19;20027;-73
2023/03/20 13:06:03;;;;;;;8.68;5.15;;;9.90;99.90;;;;;;7370584;19;20958;-73
2023/03/20 13:08:39;;;;;;;9.30;5.30;;;9.90;99.90;;;;;;7374069;19;20018;-72
2023/03/20 13:11:27;;;;;;;8.75;5.05;;;9.80;99.90;;;;;;7373579;19;20512;-73
2023/03/20 13:14:05;;;;;;;8.68;5.45;;;9.70;99.90;;;;;;7374261;19;20046;-73